createdAt,value
2022-11-08T00:00:14.774Z,57.88
2022-11-08T00:02:42.787Z,58.01
2022-11-08T00:05:29.037Z,58.49
2022-11-08T00:08:15.530Z,58.16
2022-11-08T00:11:02.278Z,58.63
2022-11-08T00:13:48.685Z,58.48
2022-11-08T00:16:16.170Z,58.30
2022-11-08T00:18:44.170Z,58.10
2022-11-08T00:21:11.872Z,57.71
2022-11-08T00:23:40.105Z,57.49
2022-11-08T00:26:08.054Z,57.49
2022-11-08T00:28:35.142Z,58.67
2022-11-08T00:31:07.056Z,59.03
2022-11-08T00:33:34.375Z,57.95
2022-11-08T00:36:01.387Z,57.52
2022-11-08T00:38:28.171Z,57.52
2022-11-08T00:40:55.224Z,57.44
2022-11-08T00:43:22.106Z,57.76
2022-11-08T00:45:48.931Z,57.50
2022-11-08T00:48:16.642Z,58.07
2022-11-08T00:50:43.610Z,57.98
2022-11-08T00:53:10.305Z,57.88
2022-11-08T00:55:37.277Z,59.04
2022-11-08T00:58:04.071Z,57.95
2022-11-08T01:00:30.804Z,57.95
2022-11-08T01:03:16.592Z,57.99
2022-11-08T01:05:43.266Z,57.35
2022-11-08T01:08:10.311Z,57.94
2022-11-08T01:10:37.110Z,58.00
2022-11-08T01:13:04.704Z,57.73
2022-11-08T01:15:36.499Z,57.42
2022-11-08T01:18:03.986Z,57.42
2022-11-08T01:20:30.947Z,57.93
2022-11-08T01:22:57.638Z,58.06
2022-11-08T01:25:24.383Z,58.22
2022-11-08T01:27:51.612Z,57.69
2022-11-08T01:30:19.685Z,58.63
2022-11-08T01:32:46.404Z,58.84
2022-11-08T01:35:13.487Z,58.00
2022-11-08T01:37:40.221Z,57.14
2022-11-08T01:40:07.308Z,57.98
2022-11-08T01:42:34.786Z,58.07
2022-11-08T01:45:02.275Z,57.71
2022-11-08T01:47:28.989Z,58.28
2022-11-08T01:49:56.949Z,57.60
2022-11-08T01:52:33.905Z,57.84
2022-11-08T01:55:01.228Z,58.58
2022-11-08T01:57:32.070Z,58.72
2022-11-08T01:59:59.027Z,59.28
2022-11-08T02:02:26.397Z,58.51
2022-11-08T02:04:53.386Z,58.66
2022-11-08T02:07:20.118Z,57.49
2022-11-08T02:09:47.608Z,57.02
2022-11-08T02:12:15.592Z,57.67
2022-11-08T02:14:42.302Z,58.50
2022-11-08T02:17:10.161Z,57.76
2022-11-08T02:19:38.742Z,57.36
2022-11-08T02:22:06.199Z,58.50
2022-11-08T02:24:33.479Z,58.42
2022-11-08T02:27:01.381Z,58.37
2022-11-08T02:29:32.181Z,57.28
2022-11-08T02:31:59.433Z,56.70
2022-11-08T02:34:30.920Z,57.64
2022-11-08T02:36:57.683Z,58.32
2022-11-08T02:39:25.378Z,57.76
2022-11-08T02:41:52.930Z,58.03
2022-11-08T02:44:19.625Z,58.15
2022-11-08T02:46:46.265Z,58.08
2022-11-08T02:49:14.352Z,57.76
2022-11-08T02:51:41.693Z,57.15
2022-11-08T02:54:08.409Z,57.40
2022-11-08T02:56:35.419Z,57.95
2022-11-08T02:59:02.318Z,57.13
2022-11-08T03:01:29.736Z,56.97
2022-11-08T03:03:56.919Z,56.97
2022-11-08T03:06:25.096Z,56.97
2022-11-08T03:08:51.936Z,57.67
2022-11-08T03:26:46.086Z,57.43
2022-11-08T03:29:13.826Z,58.47
2022-11-08T03:31:40.619Z,58.69
2022-11-08T03:34:07.298Z,59.15
2022-11-08T03:36:34.664Z,57.49
2022-11-08T03:39:01.372Z,57.95
2022-11-08T03:41:28.267Z,57.62
2022-11-08T03:43:55.713Z,59.08
2022-11-08T03:46:22.513Z,59.15
2022-11-08T03:48:49.322Z,60.43
2022-11-08T03:51:16.978Z,59.06
2022-11-08T03:53:43.835Z,60.03
2022-11-08T03:56:10.780Z,60.01
2022-11-08T03:58:37.691Z,59.81
2022-11-08T04:01:05.780Z,58.13
2022-11-08T04:03:32.998Z,58.39
2022-11-08T04:06:00.969Z,58.20
2022-11-08T04:08:28.132Z,60.10
2022-11-08T04:10:56.091Z,60.03
2022-11-08T04:13:41.717Z,59.10
2022-11-08T04:16:09.480Z,57.97
2022-11-08T04:18:57.028Z,57.66
2022-11-08T04:21:24.029Z,57.95
2022-11-08T04:23:52.293Z,57.52
2022-11-08T04:26:19.450Z,57.32
2022-11-08T04:28:46.415Z,58.86
2022-11-08T04:31:16.324Z,58.04
2022-11-08T04:33:43.462Z,58.53
2022-11-08T04:36:11.628Z,57.91
2022-11-08T04:38:38.450Z,58.24
2022-11-08T04:41:07.338Z,59.13
2022-11-08T04:43:35.042Z,58.72
2022-11-08T04:46:02.694Z,58.66
2022-11-08T04:48:30.502Z,58.57
2022-11-08T04:51:04.262Z,59.43
2022-11-08T04:53:30.997Z,59.02
2022-11-08T04:56:02.029Z,59.48
2022-11-08T04:58:29.451Z,59.26
2022-11-08T05:00:59.245Z,59.70
2022-11-08T05:03:26.339Z,58.94
2022-11-08T05:05:53.046Z,59.43
2022-11-08T05:08:20.703Z,59.31
2022-11-08T05:10:47.837Z,59.10
2022-11-08T05:13:15.619Z,59.59
2022-11-08T05:15:42.370Z,61.69
2022-11-08T05:18:09.403Z,60.14
2022-11-08T05:20:55.302Z,60.54
2022-11-08T05:23:25.973Z,60.49
2022-11-08T05:25:53.869Z,61.53
2022-11-08T05:28:21.020Z,61.77
2022-11-08T05:30:54.878Z,61.37
2022-11-08T05:33:21.705Z,61.65
2022-11-08T05:35:48.803Z,61.48
2022-11-08T05:38:15.819Z,60.92
2022-11-08T05:40:42.883Z,62.46
2022-11-08T05:43:09.866Z,61.38
2022-11-08T05:45:37.087Z,60.80
2022-11-08T05:48:04.162Z,61.61
2022-11-08T05:50:34.145Z,61.33
2022-11-08T05:53:04.898Z,62.23
2022-11-08T05:55:31.825Z,62.17
2022-11-08T05:58:00.124Z,61.29
2022-11-08T06:00:26.835Z,62.02
2022-11-08T06:02:53.759Z,62.42
2022-11-08T06:05:21.083Z,62.10
2022-11-08T06:07:47.732Z,62.42
2022-11-08T06:10:14.754Z,63.27
2022-11-08T06:12:41.530Z,62.84
2022-11-08T06:15:08.566Z,63.13
2022-11-08T06:17:35.729Z,63.41
